Time;durP1;ratioP1;P1;durP2;ratioP2;P2;SDS_P1;SDS_P2;PMS_P1;PMS_P2;Temp;Humidity;BMP_temperature;BMP_pressure;BME280_temperature;BME280_humidity;BME280_pressure;Samples;Min_cycle;Max_cycle;Signal;HPM_P1;HPM_P2
2023/08/25 00:00:01;;;;;;;18.23;16.87;;;24.00;93.00;;;;;;5017607;28;20187;-58
2023/08/25 00:02:27;;;;;;;18.10;16.90;;;24.10;92.90;;;;;;5020073;28;20645;-56
2023/08/25 00:04:53;;;;;;;17.43;16.33;;;24.10;92.50;;;;;;5017208;28;20476;-58
2023/08/25 00:07:18;;;;;;;17.97;16.90;;;24.10;92.40;;;;;;5020269;28;20907;-58
2023/08/25 00:09:45;;;;;;;17.47;16.47;;;24.10;92.10;;;;;;5019287;28;20183;-58
2023/08/25 00:12:11;;;;;;;18.00;16.80;;;24.10;91.90;;;;;;5019979;28;20528;-57
2023/08/25 00:14:37;;;;;;;17.77;16.57;;;24.10;91.80;;;;;;5019326;28;20448;-55
2023/08/25 00:17:03;;;;;;;17.43;16.50;;;24.10;91.80;;;;;;5018177;28;20437;-56
2023/08/25 00:19:29;;;;;;;18.57;17.37;;;24.20;91.80;;;;;;5019204;28;20174;-57
2023/08/25 00:21:54;;;;;;;18.20;16.90;;;24.20;91.70;;;;;;5020688;28;20421;-57
2023/08/25 00:24:20;;;;;;;17.47;16.47;;;24.20;91.40;;;;;;5019774;28;20717;-58
2023/08/25 00:26:45;;;;;;;17.30;16.40;;;24.20;91.40;;;;;;5020273;28;20190;-54
2023/08/25 00:29:11;;;;;;;17.70;16.60;;;24.20;91.30;;;;;;5019268;28;20179;-57
2023/08/25 00:31:37;;;;;;;17.20;16.20;;;24.30;91.20;;;;;;5020526;28;20186;-54
2023/08/25 00:34:02;;;;;;;18.23;17.03;;;24.30;91.10;;;;;;5019751;28;20243;-57
2023/08/25 00:36:28;;;;;;;17.03;16.13;;;24.30;91.20;;;;;;5020084;28;20191;-57
2023/08/25 00:38:54;;;;;;;17.53;16.43;;;24.30;91.00;;;;;;5019577;28;20216;-55
2023/08/25 00:41:20;;;;;;;18.10;17.10;;;24.20;91.00;;;;;;5020084;28;20454;-57
2023/08/25 00:43:46;;;;;;;17.70;16.60;;;24.30;91.20;;;;;;5018404;28;20289;-59
2023/08/25 00:46:13;;;;;;;17.20;16.30;;;24.20;91.20;;;;;;5019381;28;20273;-58
2023/08/25 00:48:39;;;;;;;17.23;16.13;;;24.20;91.40;;;;;;5019316;28;20441;-59
2023/08/25 00:51:06;;;;;;;18.20;17.20;;;24.20;91.30;;;;;;5019677;28;20433;-52
2023/08/25 00:53:33;;;;;;;18.73;17.33;;;24.20;91.40;;;;;;5020437;28;20421;-52
2023/08/25 00:56:00;;;;;;;17.40;16.30;;;24.10;91.30;;;;;;5020348;28;20413;-57
2023/08/25 00:58:26;;;;;;;17.73;16.63;;;24.20;91.50;;;;;;5018723;28;20464;-58
2023/08/25 01:00:53;;;;;;;17.07;16.17;;;24.10;91.50;;;;;;5021084;28;20479;-58
2023/08/25 01:03:19;;;;;;;17.80;16.60;;;24.10;91.50;;;;;;5024082;28;20206;-59
2023/08/25 01:05:48;;;;;;;17.80;16.80;;;24.10;91.60;;;;;;5024233;28;20543;-55
2023/08/25 01:08:15;;;;;;;17.60;16.60;;;24.10;91.60;;;;;;5021143;28;20178;-57
2023/08/25 01:10:53;;;;;;;17.07;16.07;;;24.10;91.90;;;;;;5023983;28;20421;-56
2023/08/25 01:13:53;;;;;;;18.30;17.20;;;24.00;92.00;;;;;;5022022;28;20460;-56
2023/08/25 01:16:25;;;;;;;18.17;17.00;;;24.00;92.20;;;;;;5023564;28;20421;-59
2023/08/25 01:18:51;;;;;;;17.80;16.70;;;23.90;92.30;;;;;;5022696;28;20433;-57
2023/08/25 01:21:17;;;;;;;16.67;15.77;;;23.90;92.50;;;;;;5023079;28;21182;-57
2023/08/25 01:24:06;;;;;;;17.10;16.00;;;23.90;92.50;;;;;;5023359;28;20333;-56
2023/08/25 01:26:32;;;;;;;17.43;16.23;;;23.90;92.60;;;;;;5023148;28;20422;-62
2023/08/25 01:28:58;;;;;;;18.10;17.10;;;23.80;92.60;;;;;;5022464;28;20431;-53
2023/08/25 01:31:23;;;;;;;18.07;17.03;;;23.70;92.70;;;;;;5022980;28;20552;-49
2023/08/25 01:33:49;;;;;;;18.70;17.40;;;23.80;92.90;;;;;;5023705;28;20185;-58
2023/08/25 01:36:20;;;;;;;17.70;16.70;;;23.80;93.20;;;;;;5023255;28;21014;-54
2023/08/25 01:39:03;;;;;;;17.73;16.77;;;23.70;93.40;;;;;;5022950;28;20428;-48
2023/08/25 01:41:31;;;;;;;18.03;16.83;;;23.60;93.30;;;;;;5023556;28;20975;-51
2023/08/25 01:44:02;;;;;;;18.23;17.00;;;23.50;94.00;;;;;;5023402;28;20544;-58
2023/08/25 01:46:30;;;;;;;18.00;17.00;;;23.50;93.90;;;;;;5023364;28;20417;-57
2023/08/25 01:48:57;;;;;;;18.33;17.13;;;23.50;94.00;;;;;;5022496;28;20437;-58
2023/08/25 01:51:23;;;;;;;17.27;16.03;;;23.40;94.20;;;;;;5020230;28;20535;-57
2023/08/25 01:53:53;;;;;;;18.20;17.00;;;23.40;94.60;;;;;;5021170;28;20451;-57
2023/08/25 01:56:19;;;;;;;18.10;17.00;;;23.40;94.90;;;;;;5019909;28;20185;-59
2023/08/25 01:58:44;;;;;;;18.23;16.80;;;23.30;95.20;;;;;;5022286;28;20437;-58
2023/08/25 02:01:10;;;;;;;16.83;15.83;;;23.20;95.40;;;;;;5021035;28;20183;-58
2023/08/25 02:03:36;;;;;;;18.10;16.90;;;23.10;95.80;;;;;;5022055;28;20222;-55
2023/08/25 02:06:02;;;;;;;17.13;16.13;;;23.00;95.90;;;;;;5021638;28;20206;-58
2023/08/25 02:08:27;;;;;;;18.17;17.07;;;23.00;95.80;;;;;;5020645;28;20447;-57
2023/08/25 02:10:53;;;;;;;17.73;16.80;;;23.00;95.90;;;;;;5022030;28;20640;-57
2023/08/25 02:13:19;;;;;;;18.30;17.03;;;23.00;96.20;;;;;;5022540;28;20272;-57
2023/08/25 02:15:46;;;;;;;18.40;17.40;;;23.00;96.50;;;;;;5018616;28;20326;-58
2023/08/25 02:18:12;;;;;;;19.07;17.87;;;22.90;96.80;;;;;;5016978;28;20895;-59
2023/08/25 02:20:41;;;;;;;18.30;17.20;;;22.90;97.10;;;;;;5021419;28;20449;-56
2023/08/25 02:23:08;;;;;;;18.40;17.40;;;22.90;97.30;;;;;;5022223;28;20469;-56
2023/08/25 02:25:33;;;;;;;18.47;17.37;;;22.80;97.60;;;;;;5022771;28;20530;-54
2023/08/25 02:28:00;;;;;;;18.00;16.90;;;22.80;97.80;;;;;;5021156;28;20441;-58
2023/08/25 02:30:26;;;;;;;18.00;16.80;;;22.80;97.90;;;;;;5022500;28;20548;-57
2023/08/25 02:32:52;;;;;;;18.33;17.17;;;22.70;98.30;;;;;;5021800;28;20436;-58
2023/08/25 02:35:18;;;;;;;18.60;17.50;;;22.70;98.60;;;;;;5022281;28;20187;-57
2023/08/25 02:37:57;;;;;;;18.20;17.10;;;22.70;99.10;;;;;;5021952;28;20190;-56
2023/08/25 02:40:23;;;;;;;17.60;16.60;;;22.60;99.20;;;;;;5021644;28;20261;-49
2023/08/25 02:42:49;;;;;;;18.57;17.33;;;22.60;99.60;;;;;;5021908;28;20455;-58
2023/08/25 02:45:14;;;;;;;17.23;16.33;;;22.50;99.50;;;;;;5022189;28;20491;-58
2023/08/25 02:47:40;;;;;;;17.00;16.10;;;22.50;99.60;;;;;;5021497;28;20185;-54
2023/08/25 02:50:06;;;;;;;17.40;16.40;;;22.50;99.50;;;;;;5020396;28;20202;-50
2023/08/25 02:52:31;;;;;;;17.10;16.13;;;22.50;99.90;;;;;;5022059;28;20268;-56
2023/08/25 02:54:57;;;;;;;17.10;16.10;;;22.50;99.50;;;;;;5021102;28;20661;-56
2023/08/25 02:57:22;;;;;;;18.23;17.13;;;22.60;99.60;;;;;;5021318;28;21158;-53
2023/08/25 02:59:48;;;;;;;16.90;15.90;;;22.60;99.90;;;;;;5021887;28;20206;-58
2023/08/25 03:02:13;;;;;;;17.57;16.57;;;22.50;99.90;;;;;;5021890;28;20264;-46
2023/08/25 03:04:39;;;;;;;17.50;16.50;;;22.50;99.90;;;;;;5021838;28;20214;-56
2023/08/25 03:07:05;;;;;;;15.97;15.07;;;22.50;99.90;;;;;;5020364;28;20187;-54
2023/08/25 03:09:30;;;;;;;15.40;14.60;;;22.60;99.80;;;;;;5021089;28;20197;-57
2023/08/25 03:11:56;;;;;;;16.40;15.20;;;22.90;99.10;;;;;;5021202;28;20183;-56
2023/08/25 03:14:22;;;;;;;15.83;14.83;;;23.00;98.60;;;;;;5021415;28;20241;-47
2023/08/25 03:16:49;;;;;;;15.50;14.50;;;23.10;98.60;;;;;;5021188;28;20237;-55
2023/08/25 03:19:14;;;;;;;15.80;14.90;;;23.10;98.50;;;;;;5021579;28;20228;-57
2023/08/25 03:21:40;;;;;;;16.00;14.97;;;23.20;98.20;;;;;;5020338;28;20500;-58
2023/08/25 03:24:06;;;;;;;15.90;14.90;;;23.20;98.40;;;;;;5019752;28;20705;-50
2023/08/25 03:26:31;;;;;;;15.07;14.17;;;23.30;97.90;;;;;;5018924;28;20186;-58
2023/08/25 03:28:57;;;;;;;16.13;15.00;;;23.30;97.90;;;;;;5019941;28;20216;-53
2023/08/25 03:31:22;;;;;;;16.20;15.27;;;23.40;97.90;;;;;;5021339;28;20221;-57
2023/08/25 03:33:48;;;;;;;15.10;14.23;;;23.40;98.00;;;;;;5020693;28;20906;-57
2023/08/25 03:36:13;;;;;;;16.17;15.27;;;23.30;97.90;;;;;;5020393;28;20233;-58
2023/08/25 03:38:39;;;;;;;14.53;13.53;;;23.40;98.10;;;;;;5021099;28;20305;-58
2023/08/25 03:41:05;;;;;;;15.70;14.70;;;23.30;98.40;;;;;;5019829;28;20187;-57
2023/08/25 03:43:30;;;;;;;15.90;14.90;;;23.20;98.60;;;;;;5021162;28;20252;-56
2023/08/25 03:45:56;;;;;;;15.97;15.07;;;23.20;98.90;;;;;;5020728;28;20214;-58
2023/08/25 03:48:24;;;;;;;15.53;14.67;;;23.10;99.00;;;;;;5020783;28;20265;-58
2023/08/25 03:50:50;;;;;;;16.53;15.43;;;23.00;99.70;;;;;;5020280;28;20240;-57
2023/08/25 03:53:16;;;;;;;16.23;15.30;;;22.90;99.90;;;;;;5020095;28;20437;-59
2023/08/25 03:55:41;;;;;;;16.07;15.00;;;22.80;99.90;;;;;;5019744;28;20194;-59
2023/08/25 03:58:07;;;;;;;14.33;13.53;;;22.80;99.90;;;;;;5021180;28;20911;-57
2023/08/25 04:00:33;;;;;;;16.03;15.03;;;22.80;99.90;;;;;;5020554;28;20198;-52
2023/08/25 04:02:59;;;;;;;16.17;15.20;;;22.80;99.90;;;;;;5021406;28;20213;-58
2023/08/25 04:05:25;;;;;;;16.70;15.70;;;22.70;99.90;;;;;;5019902;28;20488;-55
2023/08/25 04:07:51;;;;;;;15.00;14.10;;;22.70;99.90;;;;;;5020404;28;20187;-58
2023/08/25 04:10:16;;;;;;;15.37;14.43;;;22.70;99.90;;;;;;5015297;28;20190;-57
2023/08/25 04:12:42;;;;;;;16.97;15.77;;;22.80;99.90;;;;;;5018899;28;20440;-59
2023/08/25 04:15:08;;;;;;;16.10;15.00;;;22.80;99.90;;;;;;5020360;28;20194;-58
2023/08/25 04:17:34;;;;;;;15.10;14.20;;;22.80;99.90;;;;;;5020781;28;20289;-50
2023/08/25 04:20:01;;;;;;;15.77;14.87;;;22.80;99.90;;;;;;5018349;28;20225;-58
2023/08/25 04:22:27;;;;;;;15.53;14.63;;;22.80;99.90;;;;;;5019101;28;20448;-58
2023/08/25 04:24:52;;;;;;;15.27;14.37;;;22.80;99.90;;;;;;5018620;28;20481;-58
2023/08/25 04:27:18;;;;;;;16.37;15.40;;;22.70;99.90;;;;;;5018572;28;20197;-50
2023/08/25 04:29:44;;;;;;;17.70;16.60;;;22.60;99.90;;;;;;5019352;28;20555;-57
2023/08/25 04:32:09;;;;;;;17.20;16.20;;;22.50;99.90;;;;;;5020414;28;20300;-58
2023/08/25 04:34:35;;;;;;;16.00;14.80;;;22.40;99.90;;;;;;5020645;28;20431;-50
2023/08/25 04:37:01;;;;;;;16.53;15.57;;;22.40;99.90;;;;;;5020112;28;21135;-57
2023/08/25 04:39:27;;;;;;;15.93;15.03;;;22.30;99.90;;;;;;5017395;28;20443;-56
2023/08/25 04:41:52;;;;;;;16.50;15.27;;;22.30;99.90;;;;;;5020408;28;20244;-57
2023/08/25 04:44:18;;;;;;;16.37;15.37;;;22.20;99.90;;;;;;5020483;28;20217;-57
2023/08/25 04:46:43;;;;;;;15.87;14.87;;;22.20;99.90;;;;;;5020432;28;20178;-57
2023/08/25 04:49:10;;;;;;;16.33;15.17;;;22.20;99.90;;;;;;5020396;28;20186;-57
2023/08/25 04:51:36;;;;;;;17.13;15.80;;;22.20;99.90;;;;;;5020242;28;20189;-57
2023/08/25 04:54:02;;;;;;;16.00;15.00;;;22.20;99.90;;;;;;5013318;28;20768;-51
2023/08/25 04:56:28;;;;;;;17.13;16.00;;;22.30;99.90;;;;;;5019507;28;20183;-40
2023/08/25 04:58:53;;;;;;;16.63;15.63;;;22.20;99.90;;;;;;5020372;28;20781;-42
2023/08/25 05:01:19;;;;;;;16.27;15.27;;;22.20;99.90;;;;;;5020230;28;20201;-39
2023/08/25 05:03:45;;;;;;;17.03;15.73;;;22.20;99.90;;;;;;5020097;28;20183;-39
2023/08/25 05:06:11;;;;;;;17.87;16.67;;;22.20;99.90;;;;;;5020204;28;20585;-39
2023/08/25 05:08:37;;;;;;;17.17;15.87;;;22.20;99.90;;;;;;5019949;28;20424;-43
2023/08/25 05:11:03;;;;;;;17.40;16.30;;;22.10;99.90;;;;;;5020023;28;20630;-43
2023/08/25 05:13:29;;;;;;;17.87;16.57;;;22.10;99.90;;;;;;5019960;28;20186;-39
2023/08/25 05:15:54;;;;;;;18.60;17.30;;;22.10;99.90;;;;;;5020423;28;20431;-41
2023/08/25 05:18:20;;;;;;;17.77;16.57;;;22.10;99.90;;;;;;5020046;28;20255;-40
2023/08/25 05:20:46;;;;;;;18.57;17.47;;;22.10;99.90;;;;;;5020141;28;20632;-44
2023/08/25 05:23:12;;;;;;;18.13;17.03;;;22.00;99.90;;;;;;5019970;28;20472;-41
2023/08/25 05:25:37;;;;;;;16.87;15.70;;;22.00;99.90;;;;;;5018413;28;20279;-40
2023/08/25 05:28:03;;;;;;;18.80;17.60;;;22.10;99.90;;;;;;5019793;28;20297;-41
2023/08/25 05:30:29;;;;;;;17.63;16.47;;;22.10;99.90;;;;;;5019795;28;20263;-40
2023/08/25 05:32:54;;;;;;;17.50;16.50;;;22.10;99.90;;;;;;5020086;28;20433;-41
2023/08/25 05:35:20;;;;;;;17.23;16.23;;;22.20;99.90;;;;;;5019736;28;20256;-46
2023/08/25 05:37:46;;;;;;;18.13;17.00;;;22.20;99.90;;;;;;5018510;28;20239;-40
2023/08/25 05:40:12;;;;;;;17.93;16.83;;;22.20;99.90;;;;;;5019800;28;20545;-40
2023/08/25 05:42:38;;;;;;;18.00;16.50;;;22.20;99.90;;;;;;5020014;28;20293;-40
2023/08/25 05:45:04;;;;;;;18.60;17.40;;;22.30;99.90;;;;;;5018636;28;20479;-42
2023/08/25 05:47:30;;;;;;;16.80;15.80;;;22.30;99.90;;;;;;5020073;28;20422;-41
2023/08/25 05:49:56;;;;;;;18.00;16.70;;;22.40;99.90;;;;;;5022038;28;20440;-41
2023/08/25 05:52:22;;;;;;;18.07;16.97;;;22.30;99.90;;;;;;5023588;28;20213;-44
2023/08/25 05:54:48;;;;;;;18.60;17.20;;;22.40;99.90;;;;;;5022306;28;20555;-40
2023/08/25 05:57:14;;;;;;;19.17;17.97;;;22.40;99.90;;;;;;5022336;28;20445;-40
2023/08/25 05:59:40;;;;;;;17.50;16.50;;;22.50;99.90;;;;;;5022713;28;20511;-40
2023/08/25 06:02:06;;;;;;;17.17;16.17;;;22.50;99.90;;;;;;5022772;28;20267;-40
2023/08/25 06:04:31;;;;;;;18.20;17.10;;;22.60;99.90;;;;;;5023083;28;20461;-40
2023/08/25 06:06:57;;;;;;;18.27;17.13;;;22.60;99.90;;;;;;5023057;28;20191;-43
2023/08/25 06:09:23;;;;;;;18.23;17.00;;;22.70;99.90;;;;;;5023020;28;20182;-44
2023/08/25 06:11:49;;;;;;;18.40;17.20;;;22.80;99.90;;;;;;5022877;28;20206;-39
2023/08/25 06:14:14;;;;;;;16.50;15.50;;;22.80;99.90;;;;;;5022908;28;20187;-39
2023/08/25 06:16:41;;;;;;;16.97;15.87;;;23.00;99.90;;;;;;5022034;28;20465;-40
2023/08/25 06:19:07;;;;;;;16.67;15.70;;;23.00;99.90;;;;;;5021854;28;20178;-40
2023/08/25 06:21:33;;;;;;;16.20;14.93;;;23.10;99.90;;;;;;5022155;28;20440;-40
2023/08/25 06:23:59;;;;;;;17.30;16.20;;;23.10;99.90;;;;;;5021039;28;20638;-39
2023/08/25 06:26:25;;;;;;;16.20;15.10;;;23.30;99.90;;;;;;5019375;28;20280;-40
2023/08/25 06:28:52;;;;;;;16.13;15.23;;;23.30;99.90;;;;;;5021977;28;20174;-42
2023/08/25 06:31:18;;;;;;;15.70;14.73;;;23.40;99.90;;;;;;5020421;28;21183;-40
2023/08/25 06:33:45;;;;;;;15.87;14.87;;;23.50;99.90;;;;;;5021693;28;20479;-42
2023/08/25 06:36:12;;;;;;;16.17;15.13;;;23.60;99.90;;;;;;5021742;28;20556;-43
2023/08/25 06:38:39;;;;;;;15.60;14.70;;;23.70;99.90;;;;;;5019450;28;20507;-42
2023/08/25 06:41:05;;;;;;;16.17;15.17;;;23.90;99.90;;;;;;5004514;28;20448;-42
2023/08/25 06:43:31;;;;;;;14.50;13.70;;;24.00;99.90;;;;;;5020099;28;20433;-40
2023/08/25 06:45:56;;;;;;;14.50;13.60;;;24.10;99.90;;;;;;5021733;28;20206;-40
2023/08/25 06:48:22;;;;;;;15.43;14.43;;;24.30;99.90;;;;;;5021012;28;20182;-40
2023/08/25 06:50:48;;;;;;;15.60;14.60;;;24.40;99.90;;;;;;5021434;28;20305;-40
2023/08/25 06:53:15;;;;;;;15.57;14.67;;;24.50;99.90;;;;;;5020586;28;20186;-39
2023/08/25 06:55:41;;;;;;;15.70;14.67;;;24.50;99.90;;;;;;5019402;28;20433;-43
2023/08/25 06:58:07;;;;;;;15.33;14.43;;;24.60;99.90;;;;;;5019431;28;20424;-39
2023/08/25 07:00:33;;;;;;;16.57;15.67;;;24.70;99.90;;;;;;5018010;28;20190;-39
2023/08/25 07:03:00;;;;;;;15.90;14.57;;;24.70;99.90;;;;;;5019609;28;20435;-40
2023/08/25 07:05:25;;;;;;;14.53;13.63;;;24.90;99.90;;;;;;5019376;28;20468;-40
2023/08/25 07:07:51;;;;;;;15.77;14.40;;;25.00;99.90;;;;;;5019828;28;20456;-40
2023/08/25 07:10:18;;;;;;;15.00;14.20;;;25.10;99.90;;;;;;5020719;28;20195;-40
2023/08/25 07:12:43;;;;;;;14.40;13.60;;;25.30;99.60;;;;;;5021163;28;20611;-41
2023/08/25 07:15:10;;;;;;;14.57;13.77;;;25.30;99.30;;;;;;5020419;28;20516;-43
2023/08/25 07:17:36;;;;;;;14.80;13.90;;;25.40;99.70;;;;;;5021535;28;20190;-40
2023/08/25 07:20:04;;;;;;;14.33;13.40;;;25.50;99.50;;;;;;5018599;28;20437;-40
2023/08/25 07:22:30;;;;;;;15.47;14.57;;;25.60;99.30;;;;;;5020372;28;20413;-40
2023/08/25 07:24:58;;;;;;;14.80;13.90;;;25.70;99.20;;;;;;5020036;28;20512;-41
2023/08/25 07:27:24;;;;;;;13.83;13.00;;;25.80;99.20;;;;;;5019584;28;20429;-41
2023/08/25 07:29:52;;;;;;;14.00;13.20;;;25.90;98.50;;;;;;5020696;28;20417;-40
2023/08/25 07:32:18;;;;;;;14.10;13.30;;;26.00;98.20;;;;;;5020126;28;20187;-39
2023/08/25 07:34:46;;;;;;;13.90;13.20;;;26.00;97.30;;;;;;5019218;28;20933;-40
2023/08/25 07:37:12;;;;;;;13.47;12.67;;;26.10;97.50;;;;;;5018878;28;21101;-40
2023/08/25 07:39:41;;;;;;;14.50;13.70;;;26.00;97.30;;;;;;5020267;28;20444;-40
2023/08/25 07:42:07;;;;;;;15.53;14.50;;;26.10;97.20;;;;;;5019331;28;20985;-39
2023/08/25 07:44:33;;;;;;;14.20;13.30;;;26.20;97.10;;;;;;5020050;28;20460;-40
2023/08/25 07:46:59;;;;;;;15.10;14.17;;;26.30;97.10;;;;;;5020343;28;20416;-40
2023/08/25 07:49:24;;;;;;;14.50;13.50;;;26.20;96.60;;;;;;5019452;28;20187;-40
2023/08/25 07:51:50;;;;;;;15.50;14.70;;;26.30;96.90;;;;;;5019655;28;20187;-40
2023/08/25 07:54:15;;;;;;;13.90;13.00;;;26.40;96.60;;;;;;5019030;28;20210;-42
2023/08/25 07:56:41;;;;;;;13.57;12.97;;;26.50;96.10;;;;;;5019560;28;20238;-41
2023/08/25 07:59:07;;;;;;;13.77;12.90;;;26.70;95.70;;;;;;5020020;28;21279;-39
2023/08/25 08:01:33;;;;;;;14.97;14.17;;;27.00;94.90;;;;;;5018783;28;20436;-40
2023/08/25 08:03:58;;;;;;;14.97;14.07;;;26.90;94.50;;;;;;5019481;28;20178;-40
2023/08/25 08:06:24;;;;;;;14.63;13.73;;;26.90;94.80;;;;;;5017561;28;20198;-41
2023/08/25 08:08:50;;;;;;;14.30;13.40;;;27.00;94.70;;;;;;5019751;28;20186;-40
2023/08/25 08:11:16;;;;;;;13.50;12.70;;;27.20;93.60;;;;;;5019083;28;20649;-43
2023/08/25 08:13:41;;;;;;;13.53;12.83;;;27.20;93.10;;;;;;5019255;28;20190;-40
2023/08/25 08:16:07;;;;;;;13.93;13.13;;;27.30;93.30;;;;;;5019369;28;20600;-42
2023/08/25 08:18:33;;;;;;;14.17;13.47;;;27.30;93.10;;;;;;5018812;28;20198;-40
2023/08/25 08:20:58;;;;;;;12.90;12.30;;;27.30;92.60;;;;;;5018907;28;20179;-40
2023/08/25 08:23:24;;;;;;;13.60;12.73;;;27.40;92.50;;;;;;5019330;28;20288;-41
2023/08/25 08:25:49;;;;;;;14.03;13.30;;;27.60;91.80;;;;;;5019696;28;20222;-40
2023/08/25 08:28:15;;;;;;;12.67;11.97;;;27.70;91.60;;;;;;5019623;28;20181;-41
2023/08/25 08:30:43;;;;;;;14.20;13.50;;;28.00;90.70;;;;;;5018395;28;20325;-41
2023/08/25 08:33:09;;;;;;;13.60;12.90;;;28.10;90.80;;;;;;5018105;28;20191;-41
2023/08/25 08:35:35;;;;;;;14.00;13.20;;;28.10;90.50;;;;;;5017863;28;20930;-44
2023/08/25 08:38:01;;;;;;;13.77;12.87;;;28.30;89.20;;;;;;5019004;28;20202;-41
2023/08/25 08:40:31;;;;;;;14.50;13.60;;;28.40;88.20;;;;;;5019980;28;20452;-43
2023/08/25 08:43:03;;;;;;;13.30;12.60;;;28.50;86.70;;;;;;5019391;28;20910;-43
2023/08/25 08:45:34;;;;;;;14.27;13.47;;;28.70;87.20;;;;;;5018974;28;20453;-41
2023/08/25 08:48:03;;;;;;;14.20;13.40;;;29.00;84.70;;;;;;5019644;28;20413;-41
2023/08/25 08:50:30;;;;;;;13.73;13.03;;;29.10;81.90;;;;;;5019412;28;20413;-40
2023/08/25 08:52:57;;;;;;;14.00;13.30;;;29.30;80.80;;;;;;5019365;28;20435;-40
2023/08/25 08:55:23;;;;;;;13.90;13.20;;;29.40;79.60;;;;;;5019222;28;20447;-41
2023/08/25 08:57:49;;;;;;;13.70;12.90;;;29.50;78.30;;;;;;5019250;28;21026;-40
2023/08/25 09:00:18;;;;;;;12.90;12.20;;;29.60;77.40;;;;;;5017584;28;20543;-44
2023/08/25 09:02:48;;;;;;;13.10;12.40;;;30.00;76.00;;;;;;5019054;28;20249;-45
2023/08/25 09:05:15;;;;;;;13.90;13.10;;;30.50;74.00;;;;;;5018374;28;20468;-41
2023/08/25 09:07:43;;;;;;;12.77;11.80;;;31.20;70.30;;;;;;5019403;28;20424;-49
2023/08/25 09:10:10;;;;;;;12.30;11.73;;;31.90;65.70;;;;;;5018612;28;20515;-46
2023/08/25 09:12:35;;;;;;;13.30;12.53;;;32.50;59.60;;;;;;5018927;28;20900;-41
2023/08/25 09:15:01;;;;;;;14.70;13.93;;;32.90;56.80;;;;;;5019250;28;20478;-43
2023/08/25 09:17:27;;;;;;;13.27;12.67;;;33.20;54.70;;;;;;5020270;28;20203;-44
2023/08/25 09:20:04;;;;;;;13.57;12.90;;;33.40;52.70;;;;;;5019417;28;20607;-46
2023/08/25 09:22:31;;;;;;;13.53;12.93;;;33.50;52.00;;;;;;5019424;28;20186;-46
2023/08/25 09:24:59;;;;;;;13.43;12.83;;;33.20;50.90;;;;;;5021536;28;20484;-42
2023/08/25 09:27:26;;;;;;;12.33;11.73;;;32.90;50.40;;;;;;5021866;28;20435;-49
2023/08/25 09:30:00;;;;;;;12.30;11.70;;;33.20;50.30;;;;;;5020371;28;20445;-43
2023/08/25 09:32:28;;;;;;;13.00;12.17;;;33.60;49.80;;;;;;5022589;28;20421;-45
2023/08/25 09:34:55;;;;;;;12.63;12.03;;;33.90;47.50;;;;;;5022836;28;20448;-47
2023/08/25 09:37:21;;;;;;;12.93;12.17;;;34.00;46.30;;;;;;5023428;28;20914;-42
2023/08/25 09:39:47;;;;;;;13.47;12.87;;;34.00;46.00;;;;;;5022975;28;20429;-46
2023/08/25 09:42:12;;;;;;;12.40;11.80;;;34.60;46.30;;;;;;5023683;28;20201;-42
2023/08/25 09:44:38;;;;;;;12.30;11.70;;;35.20;44.30;;;;;;5022343;28;20320;-42
2023/08/25 09:47:08;;;;;;;11.83;11.27;;;36.00;42.60;;;;;;5023442;28;20183;-49
2023/08/25 09:49:38;;;;;;;12.70;12.07;;;36.00;40.20;;;;;;5021310;28;20429;-41
2023/08/25 09:52:06;;;;;;;12.63;12.03;;;35.50;40.40;;;;;;5006316;28;20436;-45
2023/08/25 09:54:34;;;;;;;12.30;11.60;;;35.70;40.00;;;;;;5022548;28;20475;-44
2023/08/25 09:57:00;;;;;;;12.50;11.90;;;36.20;40.00;;;;;;5023287;28;20532;-40
2023/08/25 09:59:27;;;;;;;13.20;12.50;;;36.80;39.40;;;;;;5022742;28;20425;-44
2023/08/25 10:01:53;;;;;;;12.10;11.53;;;37.40;38.30;;;;;;5020436;28;20495;-47
2023/08/25 10:04:21;;;;;;;13.47;12.70;;;37.70;34.70;;;;;;5018948;28;20437;-44
2023/08/25 10:06:46;;;;;;;13.00;12.30;;;37.80;34.10;;;;;;5019901;28;20919;-44
2023/08/25 10:09:12;;;;;;;12.40;11.80;;;37.80;32.80;;;;;;5020443;28;20503;-42
2023/08/25 10:11:40;;;;;;;12.03;11.33;;;37.90;33.90;;;;;;5018906;28;20218;-43
2023/08/25 10:14:08;;;;;;;11.90;11.40;;;38.20;33.10;;;;;;5019313;28;20466;-47
2023/08/25 10:16:47;;;;;;;13.50;12.70;;;38.80;32.60;;;;;;5018393;28;20935;-43
2023/08/25 10:19:15;;;;;;;12.93;12.33;;;39.40;31.00;;;;;;5019337;28;20483;-43
2023/08/25 10:21:46;;;;;;;12.60;11.97;;;39.20;30.50;;;;;;5020097;28;20899;-48
2023/08/25 10:24:14;;;;;;;12.60;12.10;;;38.70;29.00;;;;;;5020819;28;20465;-45
2023/08/25 10:26:42;;;;;;;12.70;12.10;;;38.20;31.30;;;;;;5021971;28;20424;-42
2023/08/25 10:29:08;;;;;;;13.20;12.60;;;38.10;30.40;;;;;;5021768;28;20421;-46
2023/08/25 10:31:34;;;;;;;13.10;12.40;;;37.90;31.00;;;;;;5021065;28;20406;-47
2023/08/25 10:33:59;;;;;;;12.23;11.60;;;37.70;30.50;;;;;;5019675;28;20433;-40
2023/08/25 10:36:25;;;;;;;12.00;11.50;;;37.10;32.00;;;;;;5019600;28;21385;-44
2023/08/25 10:39:00;;;;;;;12.03;11.53;;;37.10;32.60;;;;;;5020756;28;20700;-42
2023/08/25 10:41:28;;;;;;;11.87;11.37;;;37.20;31.40;;;;;;5021116;28;20178;-45
2023/08/25 10:43:55;;;;;;;12.13;11.63;;;36.70;31.00;;;;;;5020663;28;20914;-46
2023/08/25 10:46:22;;;;;;;12.60;12.00;;;36.80;32.10;;;;;;5020277;28;20523;-43
2023/08/25 10:49:02;;;;;;;12.30;11.80;;;37.10;31.10;;;;;;5021864;28;20536;-43
2023/08/25 10:51:27;;;;;;;11.63;11.03;;;37.10;30.40;;;;;;5022272;28;20417;-44
2023/08/25 10:53:54;;;;;;;11.83;11.33;;;36.80;31.20;;;;;;5021106;28;20433;-41
2023/08/25 10:56:21;;;;;;;11.43;11.03;;;35.90;31.60;;;;;;5021460;28;20390;-44
2023/08/25 10:59:09;;;;;;;11.33;10.83;;;35.50;31.60;;;;;;5021372;28;20453;-42
2023/08/25 11:01:37;;;;;;;11.70;10.97;;;35.40;32.00;;;;;;5020165;28;20915;-45
2023/08/25 11:04:08;;;;;;;10.77;10.27;;;35.70;32.30;;;;;;5020771;28;20775;-42
2023/08/25 11:06:50;;;;;;;12.10;11.53;;;35.60;32.30;;;;;;5005988;28;20429;-42
2023/08/25 11:09:35;;;;;;;11.50;11.00;;;36.20;32.30;;;;;;5020125;28;20410;-46
2023/08/25 11:12:08;;;;;;;11.97;11.37;;;36.80;30.30;;;;;;5020738;28;20464;-41
2023/08/25 11:14:36;;;;;;;11.70;11.20;;;36.90;29.40;;;;;;5019914;28;20429;-42
2023/08/25 11:17:06;;;;;;;11.90;11.40;;;36.60;29.60;;;;;;5020684;28;20516;-41
2023/08/25 11:19:36;;;;;;;11.70;11.20;;;35.60;30.80;;;;;;5020401;28;20810;-42
2023/08/25 11:22:11;;;;;;;12.10;11.50;;;35.30;30.70;;;;;;5021066;28;20420;-41
2023/08/25 11:24:37;;;;;;;12.27;11.57;;;34.20;32.20;;;;;;5021659;28;20484;-41
2023/08/25 11:27:09;;;;;;;11.00;10.50;;;33.50;33.00;;;;;;5021095;28;20435;-42
2023/08/25 11:29:34;;;;;;;12.57;11.97;;;33.20;34.10;;;;;;5018473;28;20182;-42
2023/08/25 11:32:01;;;;;;;11.30;10.70;;;33.40;34.40;;;;;;5018496;28;20432;-43
2023/08/25 11:34:31;;;;;;;12.23;11.63;;;33.70;34.00;;;;;;5021004;28;20257;-43
2023/08/25 11:36:56;;;;;;;12.17;11.67;;;33.80;34.20;;;;;;5021452;28;20459;-47
2023/08/25 11:39:22;;;;;;;11.93;11.43;;;33.80;34.30;;;;;;5020744;28;20491;-44
2023/08/25 11:41:53;;;;;;;11.00;10.50;;;33.70;34.80;;;;;;5013393;28;20189;-44
2023/08/25 11:44:18;;;;;;;11.27;10.77;;;33.70;35.50;;;;;;5020647;28;20190;-41
2023/08/25 11:46:44;;;;;;;11.60;11.10;;;33.50;35.90;;;;;;5020538;28;20418;-43
2023/08/25 11:49:10;;;;;;;12.80;12.03;;;33.20;37.30;;;;;;5018771;28;20178;-40
2023/08/25 11:51:36;;;;;;;12.93;12.27;;;32.50;38.00;;;;;;5016592;28;21338;-41
2023/08/25 11:54:04;;;;;;;13.20;12.60;;;32.20;39.30;;;;;;5018668;28;20271;-40
2023/08/25 11:56:30;;;;;;;12.90;12.30;;;31.90;39.60;;;;;;5015080;28;20186;-39
2023/08/25 11:58:58;;;;;;;13.33;12.70;;;31.60;39.40;;;;;;5017097;28;20783;-44
2023/08/25 12:01:31;;;;;;;13.40;12.80;;;31.30;40.50;;;;;;5017634;28;20966;-40
2023/08/25 12:03:59;;;;;;;13.13;12.33;;;31.10;41.20;;;;;;5020309;28;20495;-41
2023/08/25 12:06:25;;;;;;;12.90;12.20;;;31.00;41.90;;;;;;5017876;28;21167;-41
2023/08/25 12:08:51;;;;;;;11.93;11.23;;;30.90;42.20;;;;;;5020125;28;20421;-41
2023/08/25 12:11:16;;;;;;;12.00;11.43;;;31.00;42.50;;;;;;5019840;28;20193;-42
2023/08/25 12:13:44;;;;;;;12.60;12.00;;;30.90;42.90;;;;;;5017174;28;20440;-40
2023/08/25 12:16:13;;;;;;;12.80;12.20;;;30.90;43.30;;;;;;5018371;28;20190;-42
2023/08/25 12:18:40;;;;;;;13.60;12.77;;;30.80;43.80;;;;;;5018555;28;20421;-39
2023/08/25 12:21:07;;;;;;;13.03;12.43;;;30.80;43.90;;;;;;5018371;28;20409;-43
2023/08/25 12:23:40;;;;;;;14.03;13.23;;;30.80;52.40;;;;;;5018739;28;20519;-41
2023/08/25 12:26:11;;;;;;;12.83;12.23;;;30.50;53.80;;;;;;5016677;28;20469;-39